Time;durP1;ratioP1;P1;durP2;ratioP2;P2;SDS_P1;SDS_P2;PMS_P1;PMS_P2;Temp;Humidity;BMP_temperature;BMP_pressure;BME280_temperature;BME280_humidity;BME280_pressure;Samples;Min_cycle;Max_cycle;Signal;HPM_P1;HPM_P2
2021/05/27 00:00:20;;;;;;;;;;;22.60;43.70;;;;;;1572445;74;743;-66
2021/05/27 00:02:22;;;;;;;;;;;22.70;43.70;;;;;;1574255;74;1063;-66
2021/05/27 00:04:23;;;;;;;;;;;22.70;43.80;;;;;;1575498;74;1189;-66
2021/05/27 00:06:25;;;;;;;;;;;22.70;43.80;;;;;;1575215;74;723;-67
2021/05/27 00:08:27;;;;;;;;;;;22.60;43.70;;;;;;1578906;74;786;-66
2021/05/27 00:10:30;;;;;;;;;;;22.60;43.70;;;;;;1578418;74;749;-67
2021/05/27 00:12:32;;;;;;;;;;;22.70;43.80;;;;;;1580110;74;764;-66
2021/05/27 00:14:34;;;;;;;;;;;22.60;43.70;;;;;;1582659;74;1134;-67
2021/05/27 00:16:36;;;;;;;;;;;22.70;43.80;;;;;;1578546;74;1941;-66
2021/05/27 00:18:37;;;;;;;;;;;22.70;43.80;;;;;;1574274;74;761;-66
2021/05/27 00:20:40;;;;;;;;;;;22.70;43.70;;;;;;1570551;74;782;-66
2021/05/27 00:22:42;;;;;;;;;;;22.70;43.80;;;;;;1577968;74;723;-66
2021/05/27 00:24:43;;;;;;;;;;;22.70;43.80;;;;;;1570568;74;1153;-66
2021/05/27 00:26:45;;;;;;;;;;;22.60;43.70;;;;;;1575495;74;731;-66
2021/05/27 00:28:47;;;;;;;;;;;22.60;43.70;;;;;;1574866;74;692;-66
2021/05/27 00:30:49;;;;;;;;;;;22.70;43.70;;;;;;1580841;74;677;-67
2021/05/27 00:32:51;;;;;;;;;;;22.70;43.60;;;;;;1577392;74;757;-67
2021/05/27 00:34:53;;;;;;;;;;;22.70;43.60;;;;;;1579453;74;1139;-67
2021/05/27 00:36:55;;;;;;;;;;;22.70;43.60;;;;;;1568611;74;1965;-67
2021/05/27 00:38:56;;;;;;;;;;;22.70;43.50;;;;;;1578842;74;724;-67
2021/05/27 00:40:58;;;;;;;;;;;22.70;43.50;;;;;;1577855;73;754;-67
2021/05/27 00:43:00;;;;;;;;;;;22.70;43.60;;;;;;1576610;74;812;-67
2021/05/27 00:45:07;;;;;;;;;;;22.70;43.60;;;;;;1573065;74;1154;-67
2021/05/27 00:47:09;;;;;;;;;;;22.70;43.60;;;;;;1574098;74;1035;-67
2021/05/27 00:49:11;;;;;;;;;;;22.70;43.60;;;;;;1574881;74;718;-67
2021/05/27 00:51:13;;;;;;;;;;;22.70;43.60;;;;;;1575530;74;753;-67
2021/05/27 00:53:15;;;;;;;;;;;22.70;43.50;;;;;;1575211;74;1140;-66
2021/05/27 00:55:18;;;;;;;;;;;22.70;43.50;;;;;;1578963;74;1930;-67
2021/05/27 00:57:35;;;;;;;;;;;22.70;43.50;;;;;;1572884;74;730;-67
2021/05/27 00:59:37;;;;;;;;;;;22.80;43.50;;;;;;1571855;74;732;-67
2021/05/27 01:01:39;;;;;;;;;;;22.70;43.60;;;;;;1576048;74;705;-67
2021/05/27 01:03:41;;;;;;;;;;;22.60;43.40;;;;;;1576981;74;1145;-67
2021/05/27 01:05:43;;;;;;;;;;;22.60;43.60;;;;;;1575465;74;696;-67
2021/05/27 01:07:45;;;;;;;;;;;22.70;43.60;;;;;;1570686;74;666;-67
2021/05/27 01:09:47;;;;;;;;;;;22.70;43.60;;;;;;1577486;74;720;-67
2021/05/27 01:11:48;;;;;;;;;;;22.70;43.60;;;;;;1574267;74;735;-67
2021/05/27 01:13:50;;;;;;;;;;;22.70;43.60;;;;;;1576121;74;1109;-67
2021/05/27 01:15:52;;;;;;;;;;;22.70;43.60;;;;;;1578525;74;1933;-67
2021/05/27 01:17:55;;;;;;;;;;;22.70;43.60;;;;;;1577780;74;743;-66
2021/05/27 01:19:57;;;;;;;;;;;22.70;43.60;;;;;;1581268;74;810;-67
2021/05/27 01:21:59;;;;;;;;;;;22.70;43.70;;;;;;1579558;74;711;-68
2021/05/27 01:24:01;;;;;;;;;;;22.70;43.70;;;;;;1571997;74;1133;-69
2021/05/27 01:26:03;;;;;;;;;;;22.60;43.60;;;;;;1576475;74;757;-70
2021/05/27 01:28:05;;;;;;;;;;;22.70;43.70;;;;;;1575536;74;738;-70
2021/05/27 01:30:07;;;;;;;;;;;22.60;43.60;;;;;;1576580;74;721;-70
2021/05/27 01:32:09;;;;;;;;;;;22.60;43.50;;;;;;1574784;74;772;-70
2021/05/27 01:34:11;;;;;;;;;;;22.60;43.60;;;;;;1567846;74;1153;-70
2021/05/27 01:36:13;;;;;;;;;;;22.60;43.50;;;;;;1577129;74;1940;-70
2021/05/27 01:38:16;;;;;;;;;;;22.60;43.40;;;;;;1569493;74;731;-72
2021/05/27 01:40:18;;;;;;;;;;;22.60;43.40;;;;;;1567149;74;724;-69
2021/05/27 01:42:20;;;;;;;;;;;22.60;43.40;;;;;;1581597;74;703;-69
2021/05/27 01:44:22;;;;;;;;;;;22.60;43.50;;;;;;1567906;74;1133;-68
2021/05/27 01:46:24;;;;;;;;;;;22.60;43.50;;;;;;1580390;74;720;-69
2021/05/27 01:48:26;;;;;;;;;;;22.60;43.40;;;;;;1556726;74;1076;-70
2021/05/27 01:50:28;;;;;;;;;;;22.60;43.30;;;;;;1566975;74;706;-69
2021/05/27 01:52:29;;;;;;;;;;;22.60;43.30;;;;;;1559578;74;699;-69
2021/05/27 01:54:31;;;;;;;;;;;22.70;43.30;;;;;;1579673;74;1087;-69
2021/05/27 01:56:33;;;;;;;;;;;22.60;43.20;;;;;;1569599;74;1943;-70
2021/05/27 01:58:35;;;;;;;;;;;22.60;43.20;;;;;;1566567;74;738;-69
2021/05/27 02:00:37;;;;;;;;;;;22.50;43.10;;;;;;1568210;74;715;-69
2021/05/27 02:02:39;;;;;;;;;;;22.60;43.10;;;;;;1567301;74;713;-69
2021/05/27 02:04:41;;;;;;;;;;;22.60;43.20;;;;;;1577668;74;1115;-69
2021/05/27 02:06:42;;;;;;;;;;;22.60;43.10;;;;;;1574754;74;1052;-69
2021/05/27 02:09:07;;;;;;;;;;;22.60;43.10;;;;;;1572358;74;704;-69
2021/05/27 02:10:48;;;;;;;;;;;22.60;43.10;;;;;;1568162;74;1358;-69
2021/05/27 02:12:50;;;;;;;;;;;22.50;43.20;;;;;;1563121;74;702;-69
2021/05/27 02:14:52;;;;;;;;;;;22.60;43.40;;;;;;1563588;74;1130;-69
2021/05/27 02:16:53;;;;;;;;;;;22.60;43.40;;;;;;1566390;74;1930;-68
2021/05/27 02:18:55;;;;;;;;;;;22.60;43.50;;;;;;1567226;74;707;-68
2021/05/27 02:20:57;;;;;;;;;;;22.60;43.60;;;;;;1557803;74;720;-69
2021/05/27 02:22:59;;;;;;;;;;;22.60;43.70;;;;;;1582466;74;636;-68
2021/05/27 02:25:01;;;;;;;;;;;22.60;43.80;;;;;;1567180;74;1110;-69
2021/05/27 02:27:03;;;;;;;;;;;22.60;43.80;;;;;;1575896;74;725;-68
2021/05/27 02:29:05;;;;;;;;;;;22.60;43.70;;;;;;1560359;74;753;-68
2021/05/27 02:31:07;;;;;;;;;;;22.60;43.70;;;;;;1571246;74;732;-69
2021/05/27 02:33:08;;;;;;;;;;;22.60;43.60;;;;;;1575775;74;724;-69
2021/05/27 02:35:11;;;;;;;;;;;22.60;43.70;;;;;;1585247;74;1160;-69
2021/05/27 02:37:13;;;;;;;;;;;22.60;43.70;;;;;;1577850;74;1945;-69
2021/05/27 02:39:15;;;;;;;;;;;22.60;43.70;;;;;;1570508;74;753;-70
2021/05/27 02:41:16;;;;;;;;;;;22.60;43.80;;;;;;1575148;71;218725;-64
2021/05/27 02:43:18;;;;;;;;;;;22.60;43.70;;;;;;1579634;74;792;-64
2021/05/27 02:45:20;;;;;;;;;;;22.60;43.60;;;;;;1517112;77;739;-66
2021/05/27 02:47:22;;;;;;;;;;;22.60;43.60;;;;;;1546433;75;807;-64
2021/05/27 02:49:24;;;;;;;;;;;22.60;43.50;;;;;;1541126;75;810;-68
2021/05/27 02:51:26;;;;;;;;;;;22.60;43.60;;;;;;1543206;75;1298;-67
2021/05/27 02:53:28;;;;;;;;;;;22.60;43.60;;;;;;1507155;76;919;-66
2021/05/27 02:55:30;;;;;;;;;;;22.60;43.60;;;;;;1533948;75;741;-66
2021/05/27 02:57:32;;;;;;;;;;;22.60;43.50;;;;;;1525205;75;1945;-66
2021/05/27 02:59:33;;;;;;;;;;;22.60;43.40;;;;;;1544160;75;747;-67
2021/05/27 03:01:35;;;;;;;;;;;22.60;43.40;;;;;;1534846;75;1125;-66
2021/05/27 03:03:37;;;;;;;;;;;22.60;43.40;;;;;;1525223;76;714;-69
2021/05/27 03:05:39;;;;;;;;;;;22.60;43.50;;;;;;1553622;75;780;-66
2021/05/27 03:07:41;;;;;;;;;;;22.60;43.50;;;;;;1534408;75;830;-67
2021/05/27 03:09:43;;;;;;;;;;;22.60;43.60;;;;;;1503144;77;725;-66
2021/05/27 03:11:45;;;;;;;;;;;22.60;43.50;;;;;;1529509;75;1116;-68
2021/05/27 03:13:47;;;;;;;;;;;22.60;43.60;;;;;;1511327;77;749;-67
2021/05/27 03:15:49;;;;;;;;;;;22.50;43.60;;;;;;1521374;77;795;-67
2021/05/27 03:17:50;;;;;;;;;;;22.60;43.60;;;;;;1534828;75;1936;-67
2021/05/27 03:19:52;;;;;;;;;;;22.60;43.50;;;;;;1536239;75;795;-69
2021/05/27 03:21:54;;;;;;;;;;;22.60;43.50;;;;;;1537001;76;780;-68
2021/05/27 03:23:56;;;;;;;;;;;22.60;43.50;;;;;;1534805;75;733;-67
2021/05/27 03:25:58;;;;;;;;;;;22.60;43.40;;;;;;1529181;76;739;-66
2021/05/27 03:28:00;;;;;;;;;;;22.60;43.50;;;;;;1532781;75;862;-65
2021/05/27 03:30:02;;;;;;;;;;;22.60;43.50;;;;;;1537795;76;1183;-67
2021/05/27 03:32:04;;;;;;;;;;;22.60;43.40;;;;;;1534185;75;768;-67
2021/05/27 03:34:06;;;;;;;;;;;22.60;43.40;;;;;;1542803;75;813;-68
2021/05/27 03:36:08;;;;;;;;;;;22.70;43.50;;;;;;1540589;75;710;-67
2021/05/27 03:38:09;;;;;;;;;;;22.60;43.40;;;;;;1530373;76;1949;-67
2021/05/27 03:40:12;;;;;;;;;;;22.60;43.40;;;;;;1541106;76;1184;-67
2021/05/27 03:42:14;;;;;;;;;;;22.60;43.40;;;;;;1521738;76;763;-67
2021/05/27 03:44:16;;;;;;;;;;;22.60;43.40;;;;;;1528224;76;740;-66
2021/05/27 03:46:18;;;;;;;;;;;22.60;43.30;;;;;;1531031;76;752;-68
2021/05/27 03:48:20;;;;;;;;;;;22.60;43.30;;;;;;1533642;76;799;-67
2021/05/27 03:50:23;;;;;;;;;;;22.60;43.30;;;;;;1531101;76;1143;-69
2021/05/27 03:52:24;;;;;;;;;;;22.60;43.40;;;;;;1537834;76;755;-68
2021/05/27 03:54:26;;;;;;;;;;;22.60;43.40;;;;;;1526544;76;798;-69
2021/05/27 03:56:28;;;;;;;;;;;22.60;43.40;;;;;;1518310;76;1940;-67
2021/05/27 04:00:50;;;;;;;;;;;22.60;43.30;;;;;;1509451;75;1629;-66
2021/05/27 04:02:52;;;;;;;;;;;22.60;43.20;;;;;;1525735;75;806;-67
2021/05/27 04:07:16;;;;;;;;;;;22.60;43.20;;;;;;1531800;75;1581;-67
2021/05/27 04:09:17;;;;;;;;;;;22.50;43.40;;;;;;1535037;75;1690;-66
2021/05/27 04:11:19;;;;;;;;;;;22.60;43.40;;;;;;1542966;75;1098;-66
2021/05/27 04:13:21;;;;;;;;;;;22.50;43.40;;;;;;1502925;77;757;-66
2021/05/27 04:15:25;;;;;;;;;;;22.60;43.40;;;;;;1529710;76;898;-70
2021/05/27 04:17:27;;;;;;;;;;;22.60;43.50;;;;;;1529856;75;2315;-66
2021/05/27 04:19:29;;;;;;;;;;;22.60;43.50;;;;;;1532750;76;809;-68
2021/05/27 04:21:31;;;;;;;;;;;22.60;43.50;;;;;;1519693;76;1124;-67
2021/05/27 04:23:37;;;;;;;;;;;22.60;43.40;;;;;;1524977;76;821;-67
2021/05/27 04:25:39;;;;;;;;;;;22.60;43.40;;;;;;1534808;76;711;-67
2021/05/27 04:27:41;;;;;;;;;;;22.60;43.40;;;;;;1541913;76;751;-67
2021/05/27 04:29:42;;;;;;;;;;;22.60;43.30;;;;;;1545220;76;787;-69
2021/05/27 04:31:45;;;;;;;;;;;22.60;43.30;;;;;;1510724;77;1117;-67
2021/05/27 04:33:54;;;;;;;;;;;22.60;43.40;;;;;;1568328;74;713;-68
2021/05/27 04:35:55;;;;;;;;;;;22.60;43.40;;;;;;1582134;74;762;-68
2021/05/27 04:37:58;;;;;;;;;;;22.60;43.30;;;;;;1568979;74;1915;-69
2021/05/27 04:40:00;;;;;;;;;;;22.60;43.30;;;;;;1565908;74;1167;-68
2021/05/27 04:42:02;;;;;;;;;;;22.60;43.30;;;;;;1567675;74;903;-68
2021/05/27 04:44:04;;;;;;;;;;;22.60;43.30;;;;;;1573069;74;726;-69
2021/05/27 04:46:06;;;;;;;;;;;22.50;43.30;;;;;;1584770;74;689;-69
2021/05/27 04:48:12;;;;;;;;;;;22.60;43.40;;;;;;1568125;74;744;-69
2021/05/27 04:50:14;;;;;;;;;;;22.60;43.40;;;;;;1571849;74;1142;-69
2021/05/27 04:52:16;;;;;;;;;;;22.60;43.40;;;;;;1570979;74;746;-68
2021/05/27 04:54:19;;;;;;;;;;;22.60;43.40;;;;;;1579318;74;750;-68
2021/05/27 04:56:21;;;;;;;;;;;22.60;43.30;;;;;;1573290;74;785;-68
2021/05/27 04:58:23;;;;;;;;;;;22.60;43.30;;;;;;1567327;74;1922;-67
2021/05/27 05:00:25;;;;;;;;;;;22.60;43.40;;;;;;1567255;74;1165;-69
2021/05/27 05:02:27;;;;;;;;;;;22.60;43.70;;;;;;1558515;74;891;-69
2021/05/27 05:04:29;;;;;;;;;;;22.70;43.90;;;;;;1571459;74;716;-68
2021/05/27 05:06:31;;;;;;;;;;;22.60;43.90;;;;;;1572166;74;798;-67
2021/05/27 05:08:33;;;;;;;;;;;22.60;43.70;;;;;;1584420;74;787;-70
2021/05/27 05:10:35;;;;;;;;;;;22.80;43.80;;;;;;1566101;74;1152;-70
2021/05/27 05:12:47;;;;;;;;;;;22.80;43.70;;;;;;1572044;74;810;-68
2021/05/27 05:14:49;;;;;;;;;;;22.70;43.70;;;;;;1575319;74;712;-67
2021/05/27 05:16:51;;;;;;;;;;;22.70;43.60;;;;;;1569766;74;1957;-65
2021/05/27 05:18:52;;;;;;;;;;;22.80;43.40;;;;;;1555535;74;755;-67
2021/05/27 05:20:54;;;;;;;;;;;22.70;43.10;;;;;;1565776;74;1243;-67
2021/05/27 05:22:56;;;;;;;;;;;22.70;43.10;;;;;;1558566;74;747;-68
2021/05/27 05:24:58;;;;;;;;;;;22.70;43.20;;;;;;1557234;74;891;-68
2021/05/27 05:27:01;;;;;;;;;;;22.80;43.30;;;;;;1555010;74;704;-67
2021/05/27 05:29:03;;;;;;;;;;;22.80;43.40;;;;;;1570107;74;730;-69
2021/05/27 05:31:05;;;;;;;;;;;22.80;43.40;;;;;;1560627;74;1156;-67
2021/05/27 05:33:07;;;;;;;;;;;22.80;43.40;;;;;;1580048;74;806;-69
2021/05/27 05:35:09;;;;;;;;;;;22.80;43.40;;;;;;1561583;74;773;-66
2021/05/27 05:37:11;;;;;;;;;;;22.70;43.70;;;;;;1570032;74;1932;-65
2021/05/27 05:39:13;;;;;;;;;;;22.60;44.00;;;;;;1556274;74;689;-65
2021/05/27 05:41:15;;;;;;;;;;;22.60;44.20;;;;;;1557424;74;1141;-63
2021/05/27 05:43:17;;;;;;;;;;;22.60;44.00;;;;;;1575351;74;807;-65
2021/05/27 05:45:19;;;;;;;;;;;22.60;44.00;;;;;;1567623;74;655;-64
2021/05/27 05:47:21;;;;;;;;;;;22.70;44.00;;;;;;1576695;74;781;-64
2021/05/27 05:49:22;;;;;;;;;;;22.70;43.60;;;;;;1574258;74;700;-64
2021/05/27 05:51:24;;;;;;;;;;;22.70;43.30;;;;;;1569227;74;1150;-64
2021/05/27 05:53:26;;;;;;;;;;;22.80;43.20;;;;;;1556509;74;755;-63
2021/05/27 05:55:28;;;;;;;;;;;22.70;43.10;;;;;;1568996;74;764;-64
2021/05/27 05:57:30;;;;;;;;;;;22.60;43.00;;;;;;1568960;74;1946;-68
2021/05/27 05:59:32;;;;;;;;;;;22.60;43.40;;;;;;1574750;74;780;-66
2021/05/27 06:01:34;;;;;;;;;;;22.50;43.40;;;;;;1566841;74;1126;-64
2021/05/27 06:03:36;;;;;;;;;;;22.60;43.40;;;;;;1570677;74;806;-64
2021/05/27 06:05:38;;;;;;;;;;;22.70;43.20;;;;;;1558725;74;833;-66
2021/05/27 06:07:39;;;;;;;;;;;22.70;42.50;;;;;;1556153;74;838;-64
2021/05/27 06:09:41;;;;;;;;;;;22.60;42.00;;;;;;1561686;74;787;-64
2021/05/27 06:11:43;;;;;;;;;;;22.60;42.40;;;;;;1564157;74;1108;-63
2021/05/27 06:13:45;;;;;;;;;;;22.60;42.30;;;;;;1556515;74;767;-63
2021/05/27 06:15:47;;;;;;;;;;;22.70;42.30;;;;;;1563524;74;764;-64
2021/05/27 06:17:49;;;;;;;;;;;22.70;42.30;;;;;;1571062;74;1943;-64
2021/05/27 06:19:51;;;;;;;;;;;22.60;42.20;;;;;;1585331;74;980;-65
2021/05/27 06:21:53;;;;;;;;;;;22.70;42.30;;;;;;1572536;74;1107;-64
2021/05/27 06:23:55;;;;;;;;;;;22.60;42.10;;;;;;1557351;74;792;-63
2021/05/27 06:25:57;;;;;;;;;;;22.60;42.10;;;;;;1563891;74;796;-63
2021/05/27 06:27:59;;;;;;;;;;;22.60;42.00;;;;;;1571429;74;841;-63
2021/05/27 06:30:01;;;;;;;;;;;22.60;42.00;;;;;;1568753;74;1161;-64
2021/05/27 06:32:02;;;;;;;;;;;22.60;42.00;;;;;;1553031;74;679;-64
2021/05/27 06:34:04;;;;;;;;;;;22.50;41.90;;;;;;1564453;74;740;-63
2021/05/27 06:36:07;;;;;;;;;;;22.50;41.90;;;;;;1563611;74;766;-65
2021/05/27 06:38:10;;;;;;;;;;;22.50;41.80;;;;;;1585786;74;1930;-63
2021/05/27 06:40:13;;;;;;;;;;;22.50;41.80;;;;;;1583930;74;1119;-63
2021/05/27 06:42:15;;;;;;;;;;;22.50;41.80;;;;;;1565950;74;747;-63
2021/05/27 06:44:17;;;;;;;;;;;22.50;41.80;;;;;;1561043;74;822;-63
2021/05/27 06:46:20;;;;;;;;;;;22.40;41.80;;;;;;1557599;74;796;-66
2021/05/27 06:48:22;;;;;;;;;;;22.50;42.00;;;;;;1561390;74;734;-63
2021/05/27 06:50:33;;;;;;;;;;;22.50;41.80;;;;;;1570797;74;1156;-63
2021/05/27 06:52:36;;;;;;;;;;;22.50;41.80;;;;;;1561408;75;755;-66
2021/05/27 06:54:38;;;;;;;;;;;22.50;41.80;;;;;;1581165;74;787;-65
2021/05/27 06:56:39;;;;;;;;;;;22.50;41.80;;;;;;1561611;74;772;-67
2021/05/27 06:58:41;;;;;;;;;;;22.50;41.80;;;;;;1573049;74;1936;-64
2021/05/27 07:00:43;;;;;;;;;;;22.50;41.50;;;;;;1568322;74;1198;-65
2021/05/27 07:02:45;;;;;;;;;;;22.50;41.20;;;;;;1563019;74;788;-62
2021/05/27 07:04:47;;;;;;;;;;;22.50;40.50;;;;;;1569269;74;705;-64
2021/05/27 07:06:49;;;;;;;;;;;22.30;40.50;;;;;;1568135;74;758;-64
2021/05/27 07:08:51;;;;;;;;;;;22.30;40.50;;;;;;1590572;74;777;-63
2021/05/27 07:10:53;;;;;;;;;;;22.30;40.50;;;;;;1581463;74;1120;-67
2021/05/27 07:12:55;;;;;;;;;;;22.30;40.50;;;;;;1570699;74;734;-67
2021/05/27 07:14:57;;;;;;;;;;;22.30;40.40;;;;;;1579348;74;737;-64
2021/05/27 07:16:59;;;;;;;;;;;22.20;40.30;;;;;;1559887;74;790;-68
2021/05/27 07:19:01;;;;;;;;;;;22.20;40.20;;;;;;1579512;74;1922;-66
2021/05/27 07:21:03;;;;;;;;;;;22.20;40.30;;;;;;1565345;74;1144;-66
2021/05/27 07:23:04;;;;;;;;;;;22.20;40.20;;;;;;1561924;74;675;-64
2021/05/27 07:25:06;;;;;;;;;;;22.20;40.30;;;;;;1567408;74;777;-66
2021/05/27 07:27:08;;;;;;;;;;;22.20;40.20;;;;;;1557487;74;691;-63
2021/05/27 07:29:10;;;;;;;;;;;22.20;40.00;;;;;;1582182;74;746;-63
2021/05/27 07:31:12;;;;;;;;;;;22.10;40.00;;;;;;1562451;74;1130;-64
2021/05/27 07:33:14;;;;;;;;;;;22.10;40.10;;;;;;1574333;74;667;-64
2021/05/27 07:35:16;;;;;;;;;;;22.10;40.20;;;;;;1557185;74;743;-65
2021/05/27 07:37:18;;;;;;;;;;;22.20;39.90;;;;;;1562632;74;783;-64
2021/05/27 07:39:20;;;;;;;;;;;22.00;39.60;;;;;;1564772;74;1949;-61
2021/05/27 07:41:21;;;;;;;;;;;22.10;39.80;;;;;;1565197;74;1075;-63
2021/05/27 07:43:23;;;;;;;;;;;22.00;39.60;;;;;;1563735;74;787;-63
2021/05/27 07:45:25;;;;;;;;;;;22.00;40.10;;;;;;1557344;74;906;-64
2021/05/27 07:47:29;;;;;;;;;;;22.10;40.40;;;;;;1560738;74;762;-63
2021/05/27 07:49:31;;;;;;;;;;;22.10;40.40;;;;;;1562237;74;781;-67
2021/05/27 07:51:33;;;;;;;;;;;22.30;40.50;;;;;;1564162;74;1152;-66
2021/05/27 07:53:35;;;;;;;;;;;22.30;40.30;;;;;;1535907;76;822;-64
2021/05/27 07:55:36;;;;;;;;;;;22.30;40.30;;;;;;1568328;74;776;-64
2021/05/27 07:57:38;;;;;;;;;;;22.40;40.20;;;;;;1562764;74;793;-63
2021/05/27 07:59:40;;;;;;;;;;;22.40;40.30;;;;;;1567829;74;1908;-64
2021/05/27 08:01:42;;;;;;;;;;;22.50;40.30;;;;;;1557151;74;1166;-64
2021/05/27 08:03:44;;;;;;;;;;;22.40;40.40;;;;;;1546217;74;765;-63
2021/05/27 08:05:46;;;;;;;;;;;22.50;40.60;;;;;;1554275;74;712;-65
2021/05/27 08:07:49;;;;;;;;;;;22.50;40.50;;;;;;1550112;74;695;-64
2021/05/27 08:09:51;;;;;;;;;;;22.60;40.50;;;;;;1547484;74;727;-65
2021/05/27 08:11:53;;;;;;;;;;;22.50;40.50;;;;;;1554298;74;1163;-64
2021/05/27 08:13:55;;;;;;;;;;;22.50;40.50;;;;;;1556489;74;761;-65
2021/05/27 08:15:57;;;;;;;;;;;22.50;40.50;;;;;;1559115;74;768;-65
2021/05/27 08:17:58;;;;;;;;;;;22.50;40.90;;;;;;1556380;74;1932;-66
2021/05/27 08:20:00;;;;;;;;;;;22.50;40.90;;;;;;1565141;74;1127;-68
2021/05/27 08:22:02;;;;;;;;;;;22.60;40.90;;;;;;1563512;74;794;-66
2021/05/27 08:24:05;;;;;;;;;;;22.60;40.90;;;;;;1567351;74;737;-64
2021/05/27 08:26:07;;;;;;;;;;;22.60;41.00;;;;;;1554061;74;721;-68
2021/05/27 08:28:09;;;;;;;;;;;22.60;40.80;;;;;;1553001;74;708;-64
2021/05/27 08:30:11;;;;;;;;;;;22.50;40.90;;;;;;1558388;74;1085;-65
2021/05/27 08:32:13;;;;;;;;;;;22.60;40.90;;;;;;1550214;74;816;-65
2021/05/27 08:34:14;;;;;;;;;;;22.60;40.90;;;;;;1549827;74;905;-64
2021/05/27 08:36:17;;;;;;;;;;;22.60;40.90;;;;;;1557315;74;907;-64
2021/05/27 08:38:19;;;;;;;;;;;22.60;40.90;;;;;;1552216;74;1948;-65
2021/05/27 08:40:40;;;;;;;;;;;22.60;41.00;;;;;;1549442;74;1118;-65
2021/05/27 08:42:42;;;;;;;;;;;22.70;41.00;;;;;;1580827;73;692;-58
2021/05/27 08:44:43;;;;;;;;;;;22.70;41.00;;;;;;1588883;73;989;-59
2021/05/27 08:46:48;;;;;;;;;;;22.60;40.90;;;;;;1585119;73;805;-57
2021/05/27 08:48:50;;;;;;;;;;;22.60;41.00;;;;;;1580970;73;757;-58
2021/05/27 08:50:52;;;;;;;;;;;22.60;41.20;;;;;;1569242;73;1202;-59
2021/05/27 08:52:54;;;;;;;;;;;22.60;41.20;;;;;;1558885;74;815;-59
2021/05/27 08:54:56;;;;;;;;;;;22.60;41.00;;;;;;1555451;74;771;-59
2021/05/27 08:56:59;;;;;;;;;;;22.60;41.00;;;;;;1547518;74;779;-59
2021/05/27 08:59:01;;;;;;;;;;;22.60;40.90;;;;;;1563673;74;1947;-59
2021/05/27 09:01:03;;;;;;;;;;;22.60;40.70;;;;;;1561361;75;1128;-59
2021/05/27 09:03:05;;;;;;;;;;;22.70;41.20;;;;;;1562112;75;744;-59
2021/05/27 09:05:17;;;;;;;;;;;22.60;41.10;;;;;;1550618;75;619;-59
2021/05/27 09:07:19;;;;;;;;;;;22.60;41.10;;;;;;1556017;74;711;-58
2021/05/27 09:09:20;;;;;;;;;;;22.70;41.20;;;;;;1560807;74;746;-59
2021/05/27 09:11:24;;;;;;;;;;;22.70;41.20;;;;;;1546482;74;1130;-59
2021/05/27 09:13:26;;;;;;;;;;;22.80;41.20;;;;;;1557251;74;1805;-59
2021/05/27 09:15:28;;;;;;;;;;;22.70;41.20;;;;;;1552606;74;793;-58
2021/05/27 09:17:31;;;;;;;;;;;22.70;41.10;;;;;;1559741;74;770;-60
2021/05/27 09:19:33;;;;;;;;;;;22.70;41.10;;;;;;1566343;74;1925;-59
2021/05/27 09:21:39;;;;;;;;;;;22.80;41.10;;;;;;1559710;74;1076;-60
2021/05/27 09:23:50;;;;;;;;;;;22.70;41.20;;;;;;1563514;74;733;-59
2021/05/27 09:25:55;;;;;;;;;;;22.70;41.20;;;;;;1562872;74;819;-59
2021/05/27 09:27:57;;;;;;;;;;;22.70;41.30;;;;;;1560772;74;1626;-58
2021/05/27 09:29:58;;;;;;;;;;;22.70;41.30;;;;;;1560781;74;1161;-59
2021/05/27 09:32:01;;;;;;;;;;;22.70;41.30;;;;;;1551208;74;744;-60
2021/05/27 09:34:04;;;;;;;;;;;22.80;41.30;;;;;;1551347;74;788;-59
2021/05/27 09:36:19;;;;;;;;;;;22.70;41.30;;;;;;1566598;74;818;-59
2021/05/27 09:38:22;;;;;;;;;;;22.60;41.20;;;;;;1563155;74;693;-59
2021/05/27 09:40:32;;;;;;;;;;;22.60;41.30;;;;;;1557183;74;1828;-59
2021/05/27 09:42:41;;;;;;;;;;;22.60;41.30;;;;;;1555146;74;1804;-59
2021/05/27 09:44:43;;;;;;;;;;;22.60;41.30;;;;;;1563198;74;1697;-59
2021/05/27 09:46:49;;;;;;;;;;;22.60;41.30;;;;;;1553423;74;782;-60
2021/05/27 09:48:52;;;;;;;;;;;22.60;41.30;;;;;;1558557;74;760;-60
2021/05/27 09:50:55;;;;;;;;;;;22.60;41.30;;;;;;1552567;74;1503;-59
2021/05/27 09:52:57;;;;;;;;;;;22.70;41.40;;;;;;1551203;74;714;-59
2021/05/27 09:54:59;;;;;;;;;;;22.70;41.40;;;;;;1553215;74;752;-59
2021/05/27 09:57:00;;;;;;;;;;;22.80;41.40;;;;;;1557451;74;924;-60
2021/05/27 09:59:02;;;;;;;;;;;22.70;41.30;;;;;;1552544;74;1938;-58
2021/05/27 10:01:06;;;;;;;;;;;22.70;41.20;;;;;;1557903;75;1162;-59
2021/05/27 10:03:28;;;;;;;;;;;22.80;41.20;;;;;;1556021;75;1364;-59
2021/05/27 10:05:29;;;;;;;;;;;22.70;41.10;;;;;;1555011;75;825;-59
2021/05/27 10:07:45;;;;;;;;;;;22.80;41.10;;;;;;1560570;74;780;-59
2021/05/27 10:09:47;;;;;;;;;;;22.70;41.10;;;;;;1564215;74;723;-61
2021/05/27 10:11:49;;;;;;;;;;;22.80;41.00;;;;;;1563242;74;1124;-59
2021/05/27 10:13:51;;;;;;;;;;;22.80;41.00;;;;;;1566206;74;786;-59
2021/05/27 10:15:52;;;;;;;;;;;22.80;41.00;;;;;;1567602;74;933;-59
2021/05/27 10:17:58;;;;;;;;;;;22.80;41.00;;;;;;1563038;74;925;-61
2021/05/27 10:19:58;;;;;;;;;;;22.80;41.00;;;;;;1561893;74;1919;-60
2021/05/27 10:22:00;;;;;;;;;;;22.60;41.00;;;;;;1560120;74;796;-60
2021/05/27 10:24:03;;;;;;;;;;;22.60;41.30;;;;;;1563373;74;750;-59
2021/05/27 10:26:05;;;;;;;;;;;22.70;41.50;;;;;;1554324;74;957;-59
2021/05/27 10:28:10;;;;;;;;;;;22.70;41.50;;;;;;1566471;74;951;-60
2021/05/27 10:30:12;;;;;;;;;;;22.70;41.80;;;;;;1557706;74;1172;-59
2021/05/27 10:32:16;;;;;;;;;;;22.80;41.90;;;;;;1552665;74;761;-59
2021/05/27 10:34:22;;;;;;;;;;;22.80;41.80;;;;;;1554373;74;796;-57
2021/05/27 10:36:26;;;;;;;;;;;22.80;41.70;;;;;;1525053;74;1489;-58
2021/05/27 10:38:42;;;;;;;;;;;22.80;41.70;;;;;;1559830;74;1720;-60
2021/05/27 10:40:50;;;;;;;;;;;22.80;41.80;;;;;;1553971;74;1126;-60
2021/05/27 10:43:09;;;;;;;;;;;22.90;41.90;;;;;;1558101;74;747;-60
2021/05/27 10:45:10;;;;;;;;;;;22.80;41.70;;;;;;1563882;74;1422;-59
2021/05/27 10:47:13;;;;;;;;;;;22.80;41.80;;;;;;1550461;74;688;-60
2021/05/27 10:49:16;;;;;;;;;;;22.80;41.80;;;;;;1554597;74;678;-57
2021/05/27 10:53:42;;;;;;;;;;;22.80;41.80;;;;;;1568641;74;824;-60
2021/05/27 10:55:54;;;;;;;;;;;22.70;41.90;;;;;;1559427;74;702;-58
2021/05/27 10:57:56;;;;;;;;;;;22.70;41.80;;;;;;1556405;74;786;-58
2021/05/27 10:59:57;;;;;;;;;;;22.80;42.00;;;;;;1565026;74;1937;-59
2021/05/27 11:02:00;;;;;;;;;;;22.70;41.90;;;;;;1560033;75;766;-60
2021/05/27 11:04:06;;;;;;;;;;;22.80;41.90;;;;;;1550444;75;721;-60
2021/05/27 11:06:24;;;;;;;;;;;22.80;41.80;;;;;;1555534;75;637;-59
2021/05/27 11:08:26;;;;;;;;;;;22.70;42.00;;;;;;1551569;75;717;-59
2021/05/27 11:10:29;;;;;;;;;;;22.70;42.00;;;;;;1560024;75;1136;-59
2021/05/27 11:12:32;;;;;;;;;;;22.70;41.90;;;;;;1557612;74;727;-59
2021/05/27 11:14:36;;;;;;;;;;;22.70;42.00;;;;;;1553881;74;738;-58
2021/05/27 11:16:40;;;;;;;;;;;22.60;41.90;;;;;;1557492;74;645;-59
2021/05/27 11:18:41;;;;;;;;;;;22.70;42.00;;;;;;1553716;74;1447;-60
2021/05/27 11:20:43;;;;;;;;;;;22.60;41.80;;;;;;1555523;74;1940;-58
2021/05/27 11:22:58;;;;;;;;;;;22.70;42.00;;;;;;1554059;74;733;-59
2021/05/27 11:27:29;;;;;;;;;;;22.70;42.00;;;;;;1552324;74;778;-59
2021/05/27 11:29:31;;;;;;;;;;;22.60;42.00;;;;;;1553050;74;770;-61
2021/05/27 11:31:45;;;;;;;;;;;22.60;42.10;;;;;;1549563;74;1130;-60
2021/05/27 11:33:47;;;;;;;;;;;22.70;42.10;;;;;;1559851;74;777;-60
2021/05/27 11:35:50;;;;;;;;;;;22.70;42.10;;;;;;1550980;74;1072;-58
2021/05/27 11:37:52;;;;;;;;;;;22.70;42.10;;;;;;1554259;74;770;-60
2021/05/27 11:39:54;;;;;;;;;;;22.70;42.00;;;;;;1562995;74;1936;-61
2021/05/27 11:41:56;;;;;;;;;;;22.80;42.10;;;;;;1565551;74;765;-59
2021/05/27 11:43:59;;;;;;;;;;;22.70;42.10;;;;;;1561971;74;782;-61
2021/05/27 11:46:05;;;;;;;;;;;22.80;42.10;;;;;;1558174;74;827;-60
2021/05/27 11:48:18;;;;;;;;;;;22.70;42.20;;;;;;1571895;74;1678;-60
2021/05/27 11:50:16;;;;;;;;;;;22.60;42.30;;;;;;1551459;74;1609;-57
2021/05/27 11:52:18;;;;;;;;;;;22.50;42.10;;;;;;1549995;74;692;-59
2021/05/27 11:54:20;;;;;;;;;;;22.40;42.10;;;;;;1564593;74;676;-60
2021/05/27 11:56:39;;;;;;;;;;;22.40;41.60;;;;;;1558082;74;785;-60
2021/05/27 11:58:41;;;;;;;;;;;22.40;41.40;;;;;;1558322;74;711;-59
2021/05/27 12:00:43;;;;;;;;;;;22.40;41.50;;;;;;1559962;75;1914;-60
2021/05/27 12:02:48;;;;;;;;;;;22.40;40.70;;;;;;1571556;75;701;-59
2021/05/27 12:04:50;;;;;;;;;;;22.40;40.50;;;;;;1564535;74;793;-60
2021/05/27 12:06:59;;;;;;;;;;;22.40;40.80;;;;;;1567010;74;798;-60
2021/05/27 12:09:01;;;;;;;;;;;22.40;40.20;;;;;;1564415;74;719;-59
2021/05/27 12:11:03;;;;;;;;;;;22.40;39.40;;;;;;1561143;74;1188;-57
2021/05/27 12:13:05;;;;;;;;;;;22.50;39.20;;;;;;1551851;74;683;-57
2021/05/27 12:15:09;;;;;;;;;;;22.40;38.90;;;;;;1562840;74;813;-59
2021/05/27 12:17:17;;;;;;;;;;;22.30;38.50;;;;;;1559044;74;745;-59
2021/05/27 12:19:19;;;;;;;;;;;22.40;38.60;;;;;;1565599;74;1938;-59
2021/05/27 12:21:22;;;;;;;;;;;22.30;38.70;;;;;;1554468;74;1109;-58